sensor_id;sensor_type;location;lat;lon;timestamp;P1;durP1;ratioP1;P2;durP2;ratioP2
68082;SDS011;54870;50.336;3.506;2022-09-28T00:00:05;5.75;;;2.10;;
68082;SDS011;54870;50.336;3.506;2022-09-28T00:02:32;6.82;;;2.25;;
68082;SDS011;54870;50.336;3.506;2022-09-28T00:04:59;5.90;;;1.88;;
68082;SDS011;54870;50.336;3.506;2022-09-28T00:07:26;4.70;;;1.98;;
68082;SDS011;54870;50.336;3.506;2022-09-28T00:09:52;8.10;;;2.50;;
68082;SDS011;54870;50.336;3.506;2022-09-28T00:12:18;5.40;;;2.17;;
68082;SDS011;54870;50.336;3.506;2022-09-28T00:14:45;6.15;;;2.30;;
68082;SDS011;54870;50.336;3.506;2022-09-28T00:17:11;6.57;;;2.30;;
68082;SDS011;54870;50.336;3.506;2022-09-28T00:19:38;11.77;;;2.65;;
68082;SDS011;54870;50.336;3.506;2022-09-28T00:22:04;4.97;;;2.13;;
68082;SDS011;54870;50.336;3.506;2022-09-28T00:24:30;6.03;;;2.58;;
68082;SDS011;54870;50.336;3.506;2022-09-28T00:26:57;6.47;;;2.08;;
68082;SDS011;54870;50.336;3.506;2022-09-28T00:29:29;7.35;;;2.28;;
68082;SDS011;54870;50.336;3.506;2022-09-28T00:31:57;5.57;;;2.30;;
68082;SDS011;54870;50.336;3.506;2022-09-28T00:34:27;8.73;;;2.70;;
68082;SDS011;54870;50.336;3.506;2022-09-28T00:36:55;7.10;;;2.33;;
68082;SDS011;54870;50.336;3.506;2022-09-28T00:39:22;5.53;;;2.20;;
68082;SDS011;54870;50.336;3.506;2022-09-28T00:41:48;5.30;;;2.05;;
68082;SDS011;54870;50.336;3.506;2022-09-28T00:44:31;7.25;;;2.60;;
68082;SDS011;54870;50.336;3.506;2022-09-28T00:49:42;9.95;;;2.50;;
68082;SDS011;54870;50.336;3.506;2022-09-28T00:52:10;5.38;;;2.40;;
68082;SDS011;54870;50.336;3.506;2022-09-28T00:54:37;8.27;;;2.33;;
68082;SDS011;54870;50.336;3.506;2022-09-28T00:57:04;6.57;;;1.95;;
68082;SDS011;54870;50.336;3.506;2022-09-28T00:59:30;7.80;;;2.40;;
68082;SDS011;54870;50.336;3.506;2022-09-28T01:01:57;9.07;;;2.88;;
68082;SDS011;54870;50.336;3.506;2022-09-28T01:04:23;7.05;;;3.00;;
68082;SDS011;54870;50.336;3.506;2022-09-28T01:06:49;9.70;;;3.05;;
68082;SDS011;54870;50.336;3.506;2022-09-28T01:09:15;7.10;;;2.70;;
68082;SDS011;54870;50.336;3.506;2022-09-28T01:11:42;7.05;;;2.88;;
68082;SDS011;54870;50.336;3.506;2022-09-28T01:14:09;8.63;;;2.58;;
68082;SDS011;54870;50.336;3.506;2022-09-28T01:26:46;9.05;;;2.50;;
68082;SDS011;54870;50.336;3.506;2022-09-28T01:29:17;9.98;;;3.17;;
68082;SDS011;54870;50.336;3.506;2022-09-28T01:31:45;7.20;;;2.50;;
68082;SDS011;54870;50.336;3.506;2022-09-28T01:34:46;5.38;;;2.20;;
68082;SDS011;54870;50.336;3.506;2022-09-28T01:37:05;8.20;;;2.58;;
68082;SDS011;54870;50.336;3.506;2022-09-28T01:39:41;10.00;;;2.70;;
68082;SDS011;54870;50.336;3.506;2022-09-28T01:42:09;6.30;;;2.35;;
68082;SDS011;54870;50.336;3.506;2022-09-28T01:44:38;6.18;;;2.88;;
68082;SDS011;54870;50.336;3.506;2022-09-28T01:47:06;7.88;;;2.67;;
68082;SDS011;54870;50.336;3.506;2022-09-28T01:49:34;6.13;;;2.30;;
68082;SDS011;54870;50.336;3.506;2022-09-28T01:52:16;7.50;;;2.75;;
68082;SDS011;54870;50.336;3.506;2022-09-28T01:54:48;8.20;;;2.17;;
68082;SDS011;54870;50.336;3.506;2022-09-28T01:57:17;6.78;;;2.17;;
68082;SDS011;54870;50.336;3.506;2022-09-28T01:59:52;5.95;;;2.38;;
68082;SDS011;54870;50.336;3.506;2022-09-28T02:02:24;10.02;;;2.75;;
68082;SDS011;54870;50.336;3.506;2022-09-28T02:04:56;7.43;;;2.08;;
68082;SDS011;54870;50.336;3.506;2022-09-28T02:07:28;8.10;;;2.30;;
68082;SDS011;54870;50.336;3.506;2022-09-28T02:10:02;9.10;;;2.50;;
68082;SDS011;54870;50.336;3.506;2022-09-28T02:12:32;8.35;;;2.25;;
68082;SDS011;54870;50.336;3.506;2022-09-28T02:15:10;5.80;;;1.90;;
68082;SDS011;54870;50.336;3.506;2022-09-28T02:17:37;7.63;;;2.20;;
68082;SDS011;54870;50.336;3.506;2022-09-28T02:20:03;8.13;;;2.22;;
68082;SDS011;54870;50.336;3.506;2022-09-28T02:22:31;11.07;;;2.35;;
68082;SDS011;54870;50.336;3.506;2022-09-28T02:25:02;5.35;;;2.38;;
68082;SDS011;54870;50.336;3.506;2022-09-28T02:30:01;3.97;;;2.20;;
68082;SDS011;54870;50.336;3.506;2022-09-28T02:32:27;7.80;;;2.90;;
68082;SDS011;54870;50.336;3.506;2022-09-28T02:34:54;3.75;;;1.90;;
68082;SDS011;54870;50.336;3.506;2022-09-28T02:37:20;7.88;;;2.40;;
68082;SDS011;54870;50.336;3.506;2022-09-28T02:39:46;5.93;;;2.03;;
68082;SDS011;54870;50.336;3.506;2022-09-28T02:42:19;3.78;;;2.00;;
68082;SDS011;54870;50.336;3.506;2022-09-28T02:50:04;9.35;;;2.92;;
68082;SDS011;54870;50.336;3.506;2022-09-28T03:00:08;7.43;;;2.58;;
68082;SDS011;54870;50.336;3.506;2022-09-28T03:05:08;8.90;;;2.78;;
68082;SDS011;54870;50.336;3.506;2022-09-28T03:07:39;10.23;;;2.70;;
68082;SDS011;54870;50.336;3.506;2022-09-28T03:10:12;7.63;;;4.30;;
68082;SDS011;54870;50.336;3.506;2022-09-28T03:12:40;8.60;;;2.30;;
68082;SDS011;54870;50.336;3.506;2022-09-28T03:15:09;9.10;;;2.50;;
68082;SDS011;54870;50.336;3.506;2022-09-28T03:17:35;7.90;;;2.75;;
68082;SDS011;54870;50.336;3.506;2022-09-28T03:20:02;8.32;;;2.67;;
68082;SDS011;54870;50.336;3.506;2022-09-28T03:22:28;6.45;;;2.60;;
68082;SDS011;54870;50.336;3.506;2022-09-28T03:24:54;5.30;;;2.20;;
68082;SDS011;54870;50.336;3.506;2022-09-28T03:27:20;7.40;;;2.70;;
68082;SDS011;54870;50.336;3.506;2022-09-28T03:29:46;9.27;;;3.10;;
68082;SDS011;54870;50.336;3.506;2022-09-28T03:32:12;9.30;;;2.58;;
68082;SDS011;54870;50.336;3.506;2022-09-28T03:34:38;6.80;;;2.30;;
68082;SDS011;54870;50.336;3.506;2022-09-28T03:37:04;7.53;;;2.58;;
68082;SDS011;54870;50.336;3.506;2022-09-28T03:39:30;7.18;;;2.70;;
68082;SDS011;54870;50.336;3.506;2022-09-28T03:41:58;8.07;;;2.65;;
68082;SDS011;54870;50.336;3.506;2022-09-28T03:44:24;8.70;;;2.80;;
68082;SDS011;54870;50.336;3.506;2022-09-28T03:46:50;10.65;;;2.50;;
68082;SDS011;54870;50.336;3.506;2022-09-28T03:49:16;8.23;;;2.90;;
68082;SDS011;54870;50.336;3.506;2022-09-28T03:51:42;8.85;;;3.10;;
68082;SDS011;54870;50.336;3.506;2022-09-28T03:54:08;9.15;;;2.65;;
68082;SDS011;54870;50.336;3.506;2022-09-28T03:56:34;11.50;;;3.08;;
68082;SDS011;54870;50.336;3.506;2022-09-28T03:59:03;7.65;;;3.35;;
68082;SDS011;54870;50.336;3.506;2022-09-28T04:01:29;26.40;;;8.18;;
68082;SDS011;54870;50.336;3.506;2022-09-28T04:03:56;13.40;;;4.63;;
68082;SDS011;54870;50.336;3.506;2022-09-28T04:06:22;26.30;;;10.75;;
68082;SDS011;54870;50.336;3.506;2022-09-28T04:08:48;10.27;;;3.42;;
68082;SDS011;54870;50.336;3.506;2022-09-28T04:11:14;9.88;;;4.20;;
68082;SDS011;54870;50.336;3.506;2022-09-28T04:13:40;8.75;;;3.08;;
68082;SDS011;54870;50.336;3.506;2022-09-28T04:16:06;10.55;;;2.80;;
68082;SDS011;54870;50.336;3.506;2022-09-28T04:18:32;5.40;;;2.80;;
68082;SDS011;54870;50.336;3.506;2022-09-28T04:23:27;7.60;;;2.78;;
68082;SDS011;54870;50.336;3.506;2022-09-28T04:25:53;10.18;;;3.35;;
68082;SDS011;54870;50.336;3.506;2022-09-28T04:28:19;7.07;;;2.90;;
68082;SDS011;54870;50.336;3.506;2022-09-28T04:31:11;9.30;;;2.80;;
68082;SDS011;54870;50.336;3.506;2022-09-28T04:33:37;8.48;;;3.30;;
68082;SDS011;54870;50.336;3.506;2022-09-28T04:36:03;6.35;;;2.90;;
68082;SDS011;54870;50.336;3.506;2022-09-28T04:38:30;7.55;;;3.47;;
68082;SDS011;54870;50.336;3.506;2022-09-28T04:40:56;7.53;;;2.90;;
68082;SDS011;54870;50.336;3.506;2022-09-28T04:43:22;6.55;;;2.85;;
68082;SDS011;54870;50.336;3.506;2022-09-28T04:45:48;10.15;;;3.05;;
68082;SDS011;54870;50.336;3.506;2022-09-28T04:48:14;7.40;;;2.78;;
68082;SDS011;54870;50.336;3.506;2022-09-28T04:50:40;7.15;;;2.65;;
68082;SDS011;54870;50.336;3.506;2022-09-28T04:53:06;9.88;;;4.20;;
68082;SDS011;54870;50.336;3.506;2022-09-28T04:55:32;11.43;;;3.53;;
68082;SDS011;54870;50.336;3.506;2022-09-28T04:57:58;11.15;;;4.68;;
68082;SDS011;54870;50.336;3.506;2022-09-28T05:00:30;14.23;;;6.45;;
68082;SDS011;54870;50.336;3.506;2022-09-28T05:02:57;14.27;;;4.97;;
68082;SDS011;54870;50.336;3.506;2022-09-28T05:05:23;9.65;;;4.70;;
68082;SDS011;54870;50.336;3.506;2022-09-28T05:07:49;13.75;;;4.82;;
68082;SDS011;54870;50.336;3.506;2022-09-28T05:10:15;9.52;;;4.25;;
68082;SDS011;54870;50.336;3.506;2022-09-28T05:12:42;11.07;;;4.10;;
68082;SDS011;54870;50.336;3.506;2022-09-28T05:15:08;9.40;;;3.60;;
68082;SDS011;54870;50.336;3.506;2022-09-28T05:17:34;8.18;;;3.58;;
68082;SDS011;54870;50.336;3.506;2022-09-28T05:20:00;11.50;;;4.40;;
68082;SDS011;54870;50.336;3.506;2022-09-28T05:22:27;16.08;;;4.20;;
68082;SDS011;54870;50.336;3.506;2022-09-28T05:24:53;11.95;;;3.40;;
68082;SDS011;54870;50.336;3.506;2022-09-28T05:27:19;12.38;;;3.88;;
68082;SDS011;54870;50.336;3.506;2022-09-28T05:29:45;10.43;;;3.13;;
68082;SDS011;54870;50.336;3.506;2022-09-28T05:32:11;9.80;;;3.70;;
68082;SDS011;54870;50.336;3.506;2022-09-28T05:34:37;9.18;;;3.40;;
68082;SDS011;54870;50.336;3.506;2022-09-28T05:37:03;10.63;;;4.00;;
68082;SDS011;54870;50.336;3.506;2022-09-28T05:39:29;8.85;;;3.67;;
68082;SDS011;54870;50.336;3.506;2022-09-28T05:41:55;9.40;;;3.72;;
68082;SDS011;54870;50.336;3.506;2022-09-28T05:44:22;10.25;;;3.40;;
68082;SDS011;54870;50.336;3.506;2022-09-28T05:46:48;8.18;;;3.42;;
68082;SDS011;54870;50.336;3.506;2022-09-28T05:49:14;10.50;;;3.47;;
68082;SDS011;54870;50.336;3.506;2022-09-28T05:51:41;10.48;;;4.07;;
68082;SDS011;54870;50.336;3.506;2022-09-28T05:54:07;14.20;;;4.32;;
68082;SDS011;54870;50.336;3.506;2022-09-28T05:56:33;13.50;;;5.05;;
68082;SDS011;54870;50.336;3.506;2022-09-28T05:58:59;9.70;;;3.97;;
68082;SDS011;54870;50.336;3.506;2022-09-28T06:01:25;10.57;;;3.78;;
68082;SDS011;54870;50.336;3.506;2022-09-28T06:03:51;18.35;;;7.75;;
68082;SDS011;54870;50.336;3.506;2022-09-28T06:06:17;20.17;;;10.68;;
68082;SDS011;54870;50.336;3.506;2022-09-28T06:08:43;10.13;;;4.43;;
68082;SDS011;54870;50.336;3.506;2022-09-28T06:11:10;18.23;;;11.73;;
68082;SDS011;54870;50.336;3.506;2022-09-28T06:13:36;15.32;;;5.97;;
68082;SDS011;54870;50.336;3.506;2022-09-28T06:16:03;14.52;;;5.53;;
68082;SDS011;54870;50.336;3.506;2022-09-28T06:18:31;11.57;;;5.50;;
68082;SDS011;54870;50.336;3.506;2022-09-28T06:20:57;13.05;;;5.10;;
68082;SDS011;54870;50.336;3.506;2022-09-28T06:23:23;23.38;;;12.55;;
68082;SDS011;54870;50.336;3.506;2022-09-28T06:25:49;11.90;;;5.05;;
68082;SDS011;54870;50.336;3.506;2022-09-28T06:28:15;11.32;;;5.60;;
68082;SDS011;54870;50.336;3.506;2022-09-28T06:30:41;8.60;;;4.47;;
68082;SDS011;54870;50.336;3.506;2022-09-28T06:33:11;10.93;;;4.63;;
68082;SDS011;54870;50.336;3.506;2022-09-28T06:35:38;15.95;;;8.70;;
68082;SDS011;54870;50.336;3.506;2022-09-28T06:38:04;15.63;;;6.00;;
68082;SDS011;54870;50.336;3.506;2022-09-28T06:40:32;13.57;;;5.65;;
68082;SDS011;54870;50.336;3.506;2022-09-28T06:43:02;13.95;;;7.13;;
68082;SDS011;54870;50.336;3.506;2022-09-28T06:45:33;13.77;;;6.82;;
68082;SDS011;54870;50.336;3.506;2022-09-28T06:47:59;11.30;;;5.13;;
68082;SDS011;54870;50.336;3.506;2022-09-28T06:50:27;16.25;;;6.97;;
68082;SDS011;54870;50.336;3.506;2022-09-28T06:52:54;17.08;;;6.93;;
68082;SDS011;54870;50.336;3.506;2022-09-28T06:55:21;13.93;;;6.63;;
68082;SDS011;54870;50.336;3.506;2022-09-28T06:57:55;19.85;;;5.88;;
68082;SDS011;54870;50.336;3.506;2022-09-28T07:00:22;15.00;;;8.05;;
68082;SDS011;54870;50.336;3.506;2022-09-28T07:02:48;19.88;;;6.32;;
68082;SDS011;54870;50.336;3.506;2022-09-28T07:05:14;24.15;;;12.75;;
68082;SDS011;54870;50.336;3.506;2022-09-28T07:07:40;16.35;;;9.55;;
68082;SDS011;54870;50.336;3.506;2022-09-28T07:10:11;15.55;;;7.18;;
68082;SDS011;54870;50.336;3.506;2022-09-28T07:12:37;11.60;;;6.40;;
68082;SDS011;54870;50.336;3.506;2022-09-28T07:15:04;17.65;;;9.23;;
68082;SDS011;54870;50.336;3.506;2022-09-28T07:17:31;13.32;;;6.10;;
68082;SDS011;54870;50.336;3.506;2022-09-28T07:19:58;11.75;;;6.53;;
68082;SDS011;54870;50.336;3.506;2022-09-28T07:22:24;17.58;;;5.90;;
68082;SDS011;54870;50.336;3.506;2022-09-28T07:24:50;15.23;;;6.30;;
68082;SDS011;54870;50.336;3.506;2022-09-28T07:27:16;12.50;;;5.00;;
68082;SDS011;54870;50.336;3.506;2022-09-28T07:29:43;15.02;;;7.10;;
68082;SDS011;54870;50.336;3.506;2022-09-28T07:32:10;16.65;;;5.65;;
68082;SDS011;54870;50.336;3.506;2022-09-28T07:34:36;14.27;;;5.18;;
68082;SDS011;54870;50.336;3.506;2022-09-28T07:37:07;13.68;;;6.55;;
68082;SDS011;54870;50.336;3.506;2022-09-28T07:39:34;13.52;;;6.20;;
68082;SDS011;54870;50.336;3.506;2022-09-28T07:42:20;11.48;;;5.50;;
68082;SDS011;54870;50.336;3.506;2022-09-28T07:44:46;13.45;;;5.32;;
68082;SDS011;54870;50.336;3.506;2022-09-28T07:47:13;11.45;;;5.22;;
68082;SDS011;54870;50.336;3.506;2022-09-28T07:49:39;15.57;;;5.72;;
68082;SDS011;54870;50.336;3.506;2022-09-28T07:52:05;12.85;;;5.15;;
68082;SDS011;54870;50.336;3.506;2022-09-28T07:54:31;13.43;;;6.35;;
68082;SDS011;54870;50.336;3.506;2022-09-28T07:56:57;16.17;;;5.50;;
68082;SDS011;54870;50.336;3.506;2022-09-28T07:59:22;12.05;;;5.22;;
68082;SDS011;54870;50.336;3.506;2022-09-28T08:01:49;17.33;;;5.38;;
68082;SDS011;54870;50.336;3.506;2022-09-28T08:04:15;18.98;;;4.97;;
68082;SDS011;54870;50.336;3.506;2022-09-28T08:06:41;12.05;;;4.90;;
68082;SDS011;54870;50.336;3.506;2022-09-28T08:09:08;14.73;;;5.47;;
68082;SDS011;54870;50.336;3.506;2022-09-28T08:11:35;18.63;;;5.63;;
68082;SDS011;54870;50.336;3.506;2022-09-28T08:14:01;20.23;;;5.63;;
68082;SDS011;54870;50.336;3.506;2022-09-28T08:16:27;12.40;;;4.70;;
68082;SDS011;54870;50.336;3.506;2022-09-28T08:18:54;12.27;;;5.28;;
68082;SDS011;54870;50.336;3.506;2022-09-28T08:21:20;17.23;;;5.03;;
68082;SDS011;54870;50.336;3.506;2022-09-28T08:24:05;11.25;;;4.30;;
68082;SDS011;54870;50.336;3.506;2022-09-28T08:26:31;15.68;;;5.38;;
68082;SDS011;54870;50.336;3.506;2022-09-28T08:28:57;9.98;;;4.53;;
68082;SDS011;54870;50.336;3.506;2022-09-28T08:31:23;10.63;;;3.90;;
68082;SDS011;54870;50.336;3.506;2022-09-28T08:33:49;12.02;;;3.42;;
68082;SDS011;54870;50.336;3.506;2022-09-28T08:36:17;10.27;;;3.30;;
68082;SDS011;54870;50.336;3.506;2022-09-28T08:38:44;7.63;;;3.00;;
68082;SDS011;54870;50.336;3.506;2022-09-28T08:46:23;10.65;;;3.53;;
68082;SDS011;54870;50.336;3.506;2022-09-28T08:51:22;8.18;;;3.05;;
68082;SDS011;54870;50.336;3.506;2022-09-28T08:54:02;8.43;;;3.25;;
68082;SDS011;54870;50.336;3.506;2022-09-28T08:56:40;11.20;;;3.47;;
68082;SDS011;54870;50.336;3.506;2022-09-28T08:59:18;7.50;;;3.08;;
68082;SDS011;54870;50.336;3.506;2022-09-28T09:01:55;10.00;;;2.97;;
68082;SDS011;54870;50.336;3.506;2022-09-28T09:04:23;11.88;;;2.80;;
68082;SDS011;54870;50.336;3.506;2022-09-28T09:06:56;9.20;;;3.15;;
68082;SDS011;54870;50.336;3.506;2022-09-28T09:17:21;8.50;;;3.05;;
68082;SDS011;54870;50.336;3.506;2022-09-28T09:22:17;8.25;;;2.67;;
68082;SDS011;54870;50.336;3.506;2022-09-28T09:24:50;11.10;;;3.13;;
68082;SDS011;54870;50.336;3.506;2022-09-28T09:34:58;8.77;;;2.40;;
68082;SDS011;54870;50.336;3.506;2022-09-28T09:37:34;11.23;;;3.38;;
68082;SDS011;54870;50.336;3.506;2022-09-28T09:43:02;7.05;;;1.98;;
68082;SDS011;54870;50.336;3.506;2022-09-28T09:48:02;6.55;;;2.22;;
68082;SDS011;54870;50.336;3.506;2022-09-28T09:50:32;6.68;;;1.73;;
68082;SDS011;54870;50.336;3.506;2022-09-28T09:53:12;6.50;;;1.73;;
68082;SDS011;54870;50.336;3.506;2022-09-28T09:55:41;7.78;;;1.90;;
68082;SDS011;54870;50.336;3.506;2022-09-28T10:00:41;7.93;;;1.95;;
68082;SDS011;54870;50.336;3.506;2022-09-28T10:03:20;7.05;;;1.60;;
68082;SDS011;54870;50.336;3.506;2022-09-28T10:05:49;6.57;;;2.00;;
68082;SDS011;54870;50.336;3.506;2022-09-28T10:08:17;5.10;;;1.70;;
68082;SDS011;54870;50.336;3.506;2022-09-28T10:10:48;6.85;;;2.05;;
68082;SDS011;54870;50.336;3.506;2022-09-28T10:13:14;6.50;;;2.30;;
68082;SDS011;54870;50.336;3.506;2022-09-28T10:15:40;2.85;;;1.38;;
68082;SDS011;54870;50.336;3.506;2022-09-28T10:18:10;4.90;;;1.90;;
68082;SDS011;54870;50.336;3.506;2022-09-28T10:20:37;7.32;;;1.80;;
68082;SDS011;54870;50.336;3.506;2022-09-28T10:23:05;4.97;;;1.92;;
68082;SDS011;54870;50.336;3.506;2022-09-28T10:25:32;7.03;;;1.55;;
68082;SDS011;54870;50.336;3.506;2022-09-28T10:28:00;7.00;;;1.17;;
68082;SDS011;54870;50.336;3.506;2022-09-28T10:30:27;4.75;;;1.60;;
68082;SDS011;54870;50.336;3.506;2022-09-28T10:32:54;7.50;;;2.35;;
68082;SDS011;54870;50.336;3.506;2022-09-28T10:35:24;5.28;;;2.00;;
68082;SDS011;54870;50.336;3.506;2022-09-28T10:40:39;4.75;;;1.50;;
68082;SDS011;54870;50.336;3.506;2022-09-28T10:43:29;4.75;;;1.60;;
68082;SDS011;54870;50.336;3.506;2022-09-28T10:45:58;4.05;;;1.45;;
68082;SDS011;54870;50.336;3.506;2022-09-28T10:48:25;4.30;;;1.63;;
68082;SDS011;54870;50.336;3.506;2022-09-28T10:51:02;6.53;;;1.42;;
68082;SDS011;54870;50.336;3.506;2022-09-28T10:53:29;6.53;;;1.42;;
68082;SDS011;54870;50.336;3.506;2022-09-28T10:56:00;4.78;;;1.63;;
68082;SDS011;54870;50.336;3.506;2022-09-28T10:58:39;3.13;;;1.02;;
68082;SDS011;54870;50.336;3.506;2022-09-28T11:01:13;7.80;;;1.42;;
68082;SDS011;54870;50.336;3.506;2022-09-28T11:03:48;3.45;;;1.30;;
68082;SDS011;54870;50.336;3.506;2022-09-28T11:06:15;5.30;;;1.27;;
68082;SDS011;54870;50.336;3.506;2022-09-28T11:08:48;5.20;;;1.20;;
68082;SDS011;54870;50.336;3.506;2022-09-28T11:11:14;4.43;;;1.63;;
68082;SDS011;54870;50.336;3.506;2022-09-28T11:13:42;5.28;;;1.48;;
68082;SDS011;54870;50.336;3.506;2022-09-28T11:16:16;2.63;;;1.13;;
68082;SDS011;54870;50.336;3.506;2022-09-28T11:18:43;3.08;;;1.23;;
68082;SDS011;54870;50.336;3.506;2022-09-28T11:21:13;4.70;;;1.70;;
68082;SDS011;54870;50.336;3.506;2022-09-28T11:23:39;10.30;;;4.80;;
68082;SDS011;54870;50.336;3.506;2022-09-28T11:26:08;5.88;;;2.80;;
68082;SDS011;54870;50.336;3.506;2022-09-28T11:28:37;8.05;;;1.60;;
68082;SDS011;54870;50.336;3.506;2022-09-28T11:31:05;4.03;;;1.35;;
68082;SDS011;54870;50.336;3.506;2022-09-28T11:33:33;6.40;;;1.75;;
68082;SDS011;54870;50.336;3.506;2022-09-28T11:44:02;8.25;;;3.05;;
68082;SDS011;54870;50.336;3.506;2022-09-28T11:46:11;10.25;;;3.35;;
68082;SDS011;54870;50.336;3.506;2022-09-28T11:48:41;7.30;;;2.17;;
68082;SDS011;54870;50.336;3.506;2022-09-28T11:51:42;9.45;;;2.63;;
68082;SDS011;54870;50.336;3.506;2022-09-28T11:54:03;15.32;;;5.38;;
68082;SDS011;54870;50.336;3.506;2022-09-28T11:56:38;23.02;;;7.72;;
68082;SDS011;54870;50.336;3.506;2022-09-28T11:59:08;24.52;;;9.07;;
68082;SDS011;54870;50.336;3.506;2022-09-28T12:01:37;8.50;;;1.90;;
68082;SDS011;54870;50.336;3.506;2022-09-28T12:04:16;5.03;;;1.60;;
68082;SDS011;54870;50.336;3.506;2022-09-28T12:07:07;4.03;;;1.35;;
68082;SDS011;54870;50.336;3.506;2022-09-28T12:11:58;3.05;;;1.00;;
68082;SDS011;54870;50.336;3.506;2022-09-28T12:14:27;2.50;;;1.30;;
68082;SDS011;54870;50.336;3.506;2022-09-28T12:16:59;6.32;;;1.75;;
68082;SDS011;54870;50.336;3.506;2022-09-28T12:19:34;4.10;;;1.13;;
68082;SDS011;54870;50.336;3.506;2022-09-28T12:22:04;4.95;;;2.03;;
68082;SDS011;54870;50.336;3.506;2022-09-28T12:24:39;5.53;;;2.55;;
68082;SDS011;54870;50.336;3.506;2022-09-28T12:34:50;6.70;;;2.20;;
68082;SDS011;54870;50.336;3.506;2022-09-28T12:40:44;4.60;;;1.30;;
68082;SDS011;54870;50.336;3.506;2022-09-28T12:48:47;1.40;;;0.70;;
68082;SDS011;54870;50.336;3.506;2022-09-28T12:56:01;9.80;;;4.43;;
68082;SDS011;54870;50.336;3.506;2022-09-28T12:58:37;4.15;;;1.30;;
68082;SDS011;54870;50.336;3.506;2022-09-28T13:03:58;3.55;;;1.30;;
68082;SDS011;54870;50.336;3.506;2022-09-28T13:06:32;2.63;;;1.05;;
68082;SDS011;54870;50.336;3.506;2022-09-28T13:14:43;6.82;;;1.75;;
68082;SDS011;54870;50.336;3.506;2022-09-28T13:24:40;3.05;;;1.20;;
68082;SDS011;54870;50.336;3.506;2022-09-28T13:29:52;2.03;;;0.90;;
68082;SDS011;54870;50.336;3.506;2022-09-28T13:32:19;5.97;;;1.33;;
68082;SDS011;54870;50.336;3.506;2022-09-28T13:34:48;11.15;;;5.40;;
68082;SDS011;54870;50.336;3.506;2022-09-28T13:42:07;8.68;;;1.98;;
68082;SDS011;54870;50.336;3.506;2022-09-28T13:49:57;5.13;;;1.80;;
68082;SDS011;54870;50.336;3.506;2022-09-28T13:52:35;6.43;;;1.35;;
68082;SDS011;54870;50.336;3.506;2022-09-28T13:58:02;2.15;;;1.10;;
68082;SDS011;54870;50.336;3.506;2022-09-28T14:00:34;10.02;;;2.70;;
68082;SDS011;54870;50.336;3.506;2022-09-28T14:03:10;6.18;;;2.20;;
68082;SDS011;54870;50.336;3.506;2022-09-28T14:05:44;24.52;;;10.75;;
68082;SDS011;54870;50.336;3.506;2022-09-28T14:08:22;24.58;;;10.30;;
68082;SDS011;54870;50.336;3.506;2022-09-28T14:10:51;16.55;;;7.35;;
68082;SDS011;54870;50.336;3.506;2022-09-28T14:16:22;42.50;;;19.55;;
68082;SDS011;54870;50.336;3.506;2022-09-28T14:18:55;10.80;;;5.22;;
68082;SDS011;54870;50.336;3.506;2022-09-28T14:23:56;7.97;;;1.60;;
68082;SDS011;54870;50.336;3.506;2022-09-28T14:31:39;3.10;;;1.15;;
68082;SDS011;54870;50.336;3.506;2022-09-28T14:34:20;6.05;;;1.50;;
68082;SDS011;54870;50.336;3.506;2022-09-28T14:36:47;2.28;;;1.10;;
68082;SDS011;54870;50.336;3.506;2022-09-28T14:39:32;4.70;;;1.35;;
68082;SDS011;54870;50.336;3.506;2022-09-28T14:42:20;4.03;;;1.17;;
68082;SDS011;54870;50.336;3.506;2022-09-28T14:50:01;2.13;;;0.93;;
68082;SDS011;54870;50.336;3.506;2022-09-28T14:52:43;6.60;;;1.10;;
68082;SDS011;54870;50.336;3.506;2022-09-28T14:55:12;7.18;;;1.90;;
68082;SDS011;54870;50.336;3.506;2022-09-28T14:57:39;2.75;;;1.20;;
68082;SDS011;54870;50.336;3.506;2022-09-28T15:00:23;6.00;;;1.70;;
68082;SDS011;54870;50.336;3.506;2022-09-28T15:02:50;3.05;;;1.55;;
68082;SDS011;54870;50.336;3.506;2022-09-28T15:05:25;4.38;;;1.48;;
68082;SDS011;54870;50.336;3.506;2022-09-28T15:07:52;6.47;;;1.80;;
68082;SDS011;54870;50.336;3.506;2022-09-28T15:10:29;4.53;;;1.90;;
68082;SDS011;54870;50.336;3.506;2022-09-28T15:12:56;4.25;;;1.20;;
68082;SDS011;54870;50.336;3.506;2022-09-28T15:18:01;4.00;;;1.15;;
68082;SDS011;54870;50.336;3.506;2022-09-28T15:20:31;4.97;;;1.20;;
68082;SDS011;54870;50.336;3.506;2022-09-28T15:22:59;1.85;;;1.13;;
68082;SDS011;54870;50.336;3.506;2022-09-28T15:25:26;4.72;;;1.40;;
68082;SDS011;54870;50.336;3.506;2022-09-28T15:27:54;1.80;;;1.00;;
68082;SDS011;54870;50.336;3.506;2022-09-28T15:30:25;3.63;;;1.23;;
68082;SDS011;54870;50.336;3.506;2022-09-28T15:32:52;4.22;;;1.63;;
68082;SDS011;54870;50.336;3.506;2022-09-28T15:35:21;4.35;;;1.33;;
68082;SDS011;54870;50.336;3.506;2022-09-28T15:37:48;2.90;;;1.25;;
68082;SDS011;54870;50.336;3.506;2022-09-28T15:40:33;3.90;;;1.73;;
68082;SDS011;54870;50.336;3.506;2022-09-28T15:43:05;1.98;;;1.05;;
68082;SDS011;54870;50.336;3.506;2022-09-28T15:45:44;3.65;;;1.40;;
68082;SDS011;54870;50.336;3.506;2022-09-28T15:48:26;3.20;;;1.10;;
68082;SDS011;54870;50.336;3.506;2022-09-28T15:51:04;5.80;;;1.30;;
68082;SDS011;54870;50.336;3.506;2022-09-28T15:53:35;2.78;;;1.10;;
68082;SDS011;54870;50.336;3.506;2022-09-28T15:56:02;6.18;;;1.70;;
68082;SDS011;54870;50.336;3.506;2022-09-28T15:58:34;4.70;;;1.37;;
68082;SDS011;54870;50.336;3.506;2022-09-28T16:01:20;4.43;;;1.33;;
68082;SDS011;54870;50.336;3.506;2022-09-28T16:03:48;2.63;;;1.10;;
68082;SDS011;54870;50.336;3.506;2022-09-28T16:06:14;3.08;;;1.40;;
68082;SDS011;54870;50.336;3.506;2022-09-28T16:13:34;3.60;;;1.15;;
68082;SDS011;54870;50.336;3.506;2022-09-28T16:16:01;6.88;;;1.80;;
68082;SDS011;54870;50.336;3.506;2022-09-28T16:18:27;2.65;;;1.08;;
68082;SDS011;54870;50.336;3.506;2022-09-28T16:20:54;3.63;;;1.20;;
68082;SDS011;54870;50.336;3.506;2022-09-28T16:23:26;3.17;;;1.50;;
68082;SDS011;54870;50.336;3.506;2022-09-28T16:28:25;3.55;;;1.40;;
68082;SDS011;54870;50.336;3.506;2022-09-28T16:31:01;4.75;;;1.67;;
68082;SDS011;54870;50.336;3.506;2022-09-28T16:33:28;4.68;;;1.67;;
68082;SDS011;54870;50.336;3.506;2022-09-28T16:35:54;4.10;;;1.50;;
68082;SDS011;54870;50.336;3.506;2022-09-28T16:38:26;5.72;;;1.55;;
68082;SDS011;54870;50.336;3.506;2022-09-28T16:40:52;5.10;;;1.70;;
68082;SDS011;54870;50.336;3.506;2022-09-28T16:43:24;2.33;;;1.30;;
68082;SDS011;54870;50.336;3.506;2022-09-28T16:45:54;3.63;;;1.33;;
68082;SDS011;54870;50.336;3.506;2022-09-28T16:48:22;4.45;;;1.35;;
68082;SDS011;54870;50.336;3.506;2022-09-28T16:50:49;5.80;;;1.67;;
68082;SDS011;54870;50.336;3.506;2022-09-28T16:53:16;4.57;;;1.45;;
68082;SDS011;54870;50.336;3.506;2022-09-28T16:56:01;3.15;;;1.20;;
68082;SDS011;54870;50.336;3.506;2022-09-28T16:58:27;2.72;;;1.00;;
68082;SDS011;54870;50.336;3.506;2022-09-28T17:00:55;3.30;;;1.20;;
68082;SDS011;54870;50.336;3.506;2022-09-28T17:03:21;3.83;;;1.00;;
68082;SDS011;54870;50.336;3.506;2022-09-28T17:05:48;3.88;;;1.15;;
68082;SDS011;54870;50.336;3.506;2022-09-28T17:08:15;3.20;;;1.25;;
68082;SDS011;54870;50.336;3.506;2022-09-28T17:13:08;1.30;;;1.17;;
68082;SDS011;54870;50.336;3.506;2022-09-28T17:15:38;9.50;;;2.28;;
68082;SDS011;54870;50.336;3.506;2022-09-28T17:18:05;3.58;;;1.35;;
68082;SDS011;54870;50.336;3.506;2022-09-28T17:20:31;9.48;;;3.90;;
68082;SDS011;54870;50.336;3.506;2022-09-28T17:22:57;3.60;;;1.40;;
68082;SDS011;54870;50.336;3.506;2022-09-28T17:25:24;5.00;;;1.90;;
68082;SDS011;54870;50.336;3.506;2022-09-28T17:27:51;7.85;;;2.30;;
68082;SDS011;54870;50.336;3.506;2022-09-28T17:30:18;2.75;;;1.30;;
68082;SDS011;54870;50.336;3.506;2022-09-28T17:32:45;3.95;;;1.70;;
68082;SDS011;54870;50.336;3.506;2022-09-28T17:35:11;3.35;;;1.67;;